Time;durP1;ratioP1;P1;durP2;ratioP2;P2;SDS_P1;SDS_P2;PMS_P1;PMS_P2;Temp;Humidity;BMP_temperature;BMP_pressure;BME280_temperature;BME280_humidity;BME280_pressure;Samples;Min_cycle;Max_cycle;Signal;HPM_P1;HPM_P2
2023/01/24 00:01:52;;;;;;;19.73;8.98;;;;;;;-0.52;60.24;102223.00;6207373;23;20051;-82
2023/01/24 00:04:18;;;;;;;18.77;8.80;;;;;;;-0.94;60.34;102140.59;6204770;23;20020;-82
2023/01/24 00:06:45;;;;;;;23.13;9.25;;;;;;;-0.70;60.28;102176.44;6257450;23;20035;-84
2023/01/24 00:09:11;;;;;;;16.90;8.85;;;;;;;-0.87;60.27;102141.94;6232155;23;20023;-83
2023/01/24 00:11:41;;;;;;;19.55;9.05;;;;;;;-0.28;60.01;102233.28;6229781;23;20417;-83
2023/01/24 00:14:07;;;;;;;21.90;8.60;;;;;;;-0.53;60.22;102199.84;6228115;23;20054;-83
2023/01/24 00:16:38;;;;;;;21.23;9.00;;;;;;;-0.36;59.95;102208.78;6201072;23;20024;-82
2023/01/24 00:19:05;;;;;;;19.02;8.85;;;;;;;-0.18;60.07;102242.53;6203860;23;20012;-81
2023/01/24 00:21:31;;;;;;;18.75;8.80;;;;;;;-0.99;59.87;102111.22;6202831;23;20027;-84
2023/01/24 00:24:01;;;;;;;15.73;8.05;;;;;;;-0.66;59.99;102154.56;6225885;23;20457;-84
2023/01/24 00:26:27;;;;;;;20.25;8.60;;;;;;;-0.82;60.49;102129.53;6229455;23;20012;-83
2023/01/24 00:28:54;;;;;;;19.88;8.77;;;;;;;-1.45;60.34;102039.69;6255722;23;20210;-86
2023/01/24 00:31:24;;;;;;;21.75;8.75;;;;;;;-0.76;59.68;102156.44;6204406;23;20020;-85
2023/01/24 00:33:51;;;;;;;19.42;8.75;;;;;;;-0.78;60.42;102137.53;6202977;23;20016;-84
2023/01/24 00:36:20;;;;;;;15.07;7.57;;;;;;;-0.82;59.87;102143.19;6205121;23;20361;-80
2023/01/24 00:38:47;;;;;;;20.00;9.23;;;;;;;-0.33;60.48;102239.72;6206849;23;20016;-80
2023/01/24 00:41:15;;;;;;;19.92;8.88;;;;;;;-0.42;59.47;102221.09;6209363;23;20020;-84
2023/01/24 00:43:41;;;;;;;21.60;9.05;;;;;;;-0.87;60.81;102158.97;6203771;23;20020;-83
2023/01/24 00:46:10;;;;;;;19.55;9.13;;;;;;;-0.66;60.35;102198.94;6204858;23;20149;-83
2023/01/24 00:48:39;;;;;;;19.55;9.23;;;;;;;-0.97;60.40;102148.03;6229413;23;20075;-88
2023/01/24 00:51:09;;;;;;;22.25;9.35;;;;;;;-0.48;60.40;102231.78;6204564;23;20027;-85
2023/01/24 00:53:36;;;;;;;20.17;8.80;;;;;;;-0.78;60.37;102177.56;6231386;23;20083;-80
2023/01/24 00:56:02;;;;;;;18.10;8.18;;;;;;;-0.38;60.25;102231.69;6208780;23;20013;-82
2023/01/24 00:58:38;;;;;;;22.45;8.55;;;;;;;-0.49;60.62;102206.97;6177978;23;20013;-82
2023/01/24 01:01:06;;;;;;;20.27;8.57;;;;;;;-1.18;60.04;102085.06;6229417;23;20036;-81
2023/01/24 01:03:32;;;;;;;17.50;8.93;;;;;;;-0.31;60.70;102217.69;6257165;23;20074;-82
2023/01/24 01:06:09;;;;;;;15.85;7.88;;;;;;;-0.96;60.31;102101.25;6211391;23;20016;-82
2023/01/24 01:08:35;;;;;;;17.95;8.43;;;;;;;-0.29;60.58;102205.91;6208766;23;20020;-84
2023/01/24 01:11:06;;;;;;;19.60;8.48;;;;;;;-0.32;60.37;102192.88;6232336;23;20035;-81
2023/01/24 01:13:33;;;;;;;18.05;9.00;;;;;;;-0.57;60.23;102162.91;6209873;23;20027;-83
2023/01/24 01:16:06;;;;;;;20.35;9.15;;;;;;;-0.42;59.88;102165.72;6183779;23;20016;-83
2023/01/24 01:18:36;;;;;;;18.42;7.85;;;;;;;-0.41;59.95;102174.28;6209652;23;20054;-81
2023/01/24 01:21:04;;;;;;;19.65;8.75;;;;;;;-0.21;60.28;102215.00;6183035;23;20020;-84
2023/01/24 01:23:32;;;;;;;18.48;8.40;;;;;;;-0.44;60.56;102174.94;6232371;23;20020;-81
2023/01/24 01:26:09;;;;;;;21.48;8.70;;;;;;;-0.22;59.86;102217.47;6232467;23;20024;-83
2023/01/24 01:28:35;;;;;;;16.35;8.10;;;;;;;-0.55;60.55;102150.25;6207273;23;20072;-81
2023/01/24 01:31:02;;;;;;;21.85;8.73;;;;;;;-0.20;59.81;102203.13;6264859;23;20020;-82
2023/01/24 01:33:28;;;;;;;16.73;8.10;;;;;;;-0.78;60.53;102103.41;6166356;23;20056;-83
2023/01/24 01:35:54;;;;;;;19.38;8.73;;;;;;;-0.42;60.65;102162.25;6245460;23;20019;-80
2023/01/24 01:38:24;;;;;;;22.65;8.93;;;;;;;-0.65;60.32;102143.53;6245426;22;20004;-80
2023/01/24 01:40:51;;;;;;;22.00;8.38;;;;;;;-0.47;60.42;102161.94;6247518;23;20020;-82
2023/01/24 01:43:23;;;;;;;18.92;8.45;;;;;;;-1.40;60.52;102009.34;6173635;22;20000;-81
2023/01/24 01:46:15;;;;;;;;;;;;;;;-0.18;60.78;102205.00;6222511;23;20008;-79
2023/01/24 01:48:51;;;;;;;17.20;8.43;;;;;;;-1.30;59.65;102021.16;6196358;22;19903;-82
2023/01/24 01:51:49;;;;;;;16.48;8.23;;;;;;;-0.36;60.02;102172.94;6246958;22;20016;-80
2023/01/24 01:54:27;;;;;;;17.40;8.82;;;;;;;-0.71;60.48;102117.53;6221148;23;20020;-83
2023/01/24 01:57:12;;;;;;;22.42;8.90;;;;;;;-0.11;60.46;102211.47;6242497;22;20060;-80
2023/01/24 01:59:59;;;;;;;16.58;8.35;;;;;;;-0.80;59.92;102080.28;6222204;22;20034;-82
2023/01/24 02:02:34;;;;;;;17.10;7.97;;;;;;;-0.04;60.12;102207.72;6209201;23;20020;-81
2023/01/24 02:05:05;;;;;;;21.05;8.80;;;;;;;-0.81;59.77;102077.59;6245901;22;20004;-81
2023/01/24 02:07:41;;;;;;;16.10;8.07;;;;;;;-0.77;60.05;102077.03;6210085;23;20016;-82
2023/01/24 02:10:08;;;;;;;24.30;8.73;;;;;;;-0.13;59.94;102172.09;6213532;23;20020;-80
2023/01/24 02:12:46;;;;;;;17.33;8.57;;;;;;;-0.03;59.98;102197.56;6193681;23;20031;-80
2023/01/24 02:18:09;;;;;;;17.60;8.38;;;;;;;-0.59;60.17;102118.44;6235554;23;20023;-81
2023/01/24 02:20:50;;;;;;;22.17;8.37;;;;;;;-0.10;59.91;102181.66;6262436;23;20020;-84
2023/01/24 02:23:28;;;;;;;24.45;9.75;;;;;;;-0.08;60.56;102172.41;6211377;23;20065;-81
2023/01/24 02:26:14;;;;;;;18.92;8.63;;;;;;;-0.07;60.18;102185.31;6234996;23;20086;-81
2023/01/24 02:28:46;;;;;;;20.10;9.38;;;;;;;0.06;60.52;102199.03;6207814;23;20020;-80
2023/01/24 02:31:12;;;;;;;;;;;;;;;0.06;59.86;102211.81;6155560;23;20023;-82
2023/01/24 02:33:38;;;;;;;16.73;8.23;;;;;;;-0.56;60.32;102105.88;6203866;23;19911;-83
2023/01/24 02:36:28;;;;;;;18.90;8.45;;;;;;;0.01;59.68;102203.78;6228922;23;20469;-83
2023/01/24 02:39:09;;;;;;;17.15;8.30;;;;;;;-0.41;59.73;102139.34;6228178;23;20449;-83
2023/01/24 02:41:48;;;;;;;19.33;8.50;;;;;;;-0.08;59.74;102191.22;6202906;23;20022;-82
2023/01/24 02:44:21;;;;;;;17.60;8.75;;;;;;;-0.18;59.57;102165.75;6229682;23;20198;-83
2023/01/24 02:46:50;;;;;;;17.65;8.85;;;;;;;-0.93;59.99;102032.44;6231560;23;20018;-81
2023/01/24 02:49:17;;;;;;;16.15;8.25;;;;;;;-0.79;60.11;102065.84;6205121;23;20099;-80
2023/01/24 02:54:31;;;;;;;18.90;8.90;;;;;;;-0.04;60.10;102188.09;6210680;23;20036;-81
2023/01/24 02:59:42;;;;;;;18.20;9.10;;;;;;;-0.10;59.75;102166.28;6230968;23;20016;-82
2023/01/24 03:02:10;;;;;;;17.50;8.57;;;;;;;-0.27;60.17;102137.81;6178919;23;20023;-88
2023/01/24 03:04:38;;;;;;;17.75;8.55;;;;;;;-0.66;59.73;102062.50;6228797;23;20019;-82
2023/01/24 03:07:10;;;;;;;19.52;8.73;;;;;;;-0.97;60.28;102025.31;6229238;23;20040;-83
2023/01/24 03:09:48;;;;;;;21.75;9.25;;;;;;;-0.15;60.11;102176.22;6205124;23;20019;-81
2023/01/24 03:34:54;;;;;;;17.33;8.27;;;;;;;-0.76;59.88;102068.59;6258535;23;20012;-83
2023/01/24 03:40:24;;;;;;;16.20;7.85;;;;;;;-0.31;60.15;102138.38;6206941;23;20023;-84
2023/01/24 03:42:53;;;;;;;15.18;7.93;;;;;;;-1.26;60.09;101975.53;6205674;23;20031;-82
2023/01/24 03:45:29;;;;;;;15.70;7.60;;;;;;;-0.51;60.22;102109.66;6227687;23;20476;-83
2023/01/24 03:47:59;;;;;;;16.27;8.48;;;;;;;-1.06;59.53;102045.13;6230469;23;20456;-81
2023/01/24 03:53:37;;;;;;;17.95;8.90;;;;;;;-0.38;60.56;102159.16;6204422;23;20016;-85
2023/01/24 03:56:08;;;;;;;22.77;9.38;;;;;;;-1.53;60.81;101959.94;6210524;23;20016;-84
2023/01/24 03:58:42;;;;;;;19.30;8.88;;;;;;;-1.09;59.82;102043.19;6209490;23;20020;-82
2023/01/24 04:01:22;;;;;;;21.23;8.70;;;;;;;-1.22;60.59;102014.97;6235143;23;20086;-84
2023/01/24 04:03:59;;;;;;;20.77;8.93;;;;;;;-0.49;60.49;102148.13;6207387;23;20023;-83
2023/01/24 04:06:30;;;;;;;20.60;8.77;;;;;;;-1.31;60.04;102025.38;6205647;23;20008;-84
2023/01/24 04:08:57;;;;;;;17.33;8.02;;;;;;;-0.59;60.48;102127.78;6204059;23;20098;-82
2023/01/24 04:11:27;;;;;;;19.02;8.20;;;;;;;-1.06;60.51;102061.31;6205926;23;20024;-83
2023/01/24 04:13:59;;;;;;;19.15;8.00;;;;;;;-1.15;60.49;102045.31;6204975;23;20465;-83
2023/01/24 04:16:29;;;;;;;18.05;7.78;;;;;;;-1.50;60.72;101994.13;6204974;23;20012;-84
2023/01/24 04:19:30;;;;;;;18.75;8.93;;;;;;;-0.81;60.74;102134.75;6197538;23;20020;-83
2023/01/24 04:21:58;;;;;;;21.50;8.30;;;;;;;-0.70;60.73;102140.66;6231909;23;20024;-83
2023/01/24 04:24:25;;;;;;;18.85;8.52;;;;;;;-1.08;60.53;102079.88;6207597;23;20024;-80
2023/01/24 04:26:53;;;;;;;22.13;9.00;;;;;;;-2.00;60.30;101926.59;6208071;23;20020;-84
2023/01/24 04:29:27;;;;;;;18.02;8.32;;;;;;;-0.92;60.13;102131.38;6215706;23;20042;-80
2023/01/24 04:32:02;;;;;;;17.55;8.23;;;;;;;-0.79;60.68;102133.19;6233252;23;20012;-81
2023/01/24 04:34:49;;;;;;;17.85;8.23;;;;;;;-2.28;60.63;101914.25;6210160;23;20422;-82
2023/01/24 04:37:23;;;;;;;21.42;9.00;;;;;;;-1.24;61.20;102085.50;6231852;23;20016;-83
2023/01/24 04:39:50;;;;;;;23.02;9.07;;;;;;;-2.29;61.14;101920.13;6231783;23;20027;-84
2023/01/24 04:42:17;;;;;;;16.35;7.57;;;;;;;-2.42;60.77;101903.00;6238325;23;20022;-81
2023/01/24 04:45:01;;;;;;;17.25;7.90;;;;;;;-1.45;60.92;102069.44;6232888;23;20035;-81
2023/01/24 04:47:39;;;;;;;21.95;8.20;;;;;;;-1.67;60.83;102066.13;6206530;23;20008;-84
2023/01/24 04:50:17;;;;;;;21.08;8.32;;;;;;;-1.16;61.47;102165.28;6184496;23;20454;-81
2023/01/24 04:53:45;;;;;;;;;;;;;;;;;;;;;
2023/01/24 05:01:40;;;;;;;;;;;;;;;;;;;;;
2023/01/24 05:04:23;;;;;;;19.48;7.60;;;;;;;-2.75;61.29;101918.31;6135880;23;20047;-82
2023/01/24 05:06:56;;;;;;;21.40;8.32;;;;;;;-1.72;60.83;102102.28;6229434;23;20023;-82
2023/01/24 05:09:23;;;;;;;20.80;8.27;;;;;;;-1.98;61.41;102070.50;6180515;23;20432;-81
2023/01/24 05:11:59;;;;;;;17.67;8.02;;;;;;;-1.60;61.71;102138.97;6233424;23;20335;-82
2023/01/24 05:14:28;;;;;;;17.00;8.13;;;;;;;-1.78;61.60;102091.59;6205284;23;20091;-81
2023/01/24 05:16:57;;;;;;;16.95;8.30;;;;;;;-2.02;61.55;102045.50;6228797;23;20024;-83
2023/01/24 05:19:23;;;;;;;16.42;8.30;;;;;;;-1.72;62.02;102104.84;6254862;23;20089;-83
2023/01/24 05:21:49;;;;;;;16.67;7.65;;;;;;;-1.81;62.48;102079.50;6202131;23;20477;-81
2023/01/24 05:24:18;;;;;;;19.80;8.63;;;;;;;-2.34;61.92;102015.84;6203434;23;20357;-83
2023/01/24 05:26:45;;;;;;;17.77;8.35;;;;;;;-2.35;62.23;102003.84;6201836;23;20428;-82
2023/01/24 05:29:15;;;;;;;19.02;8.70;;;;;;;-2.20;61.96;102002.50;6230182;23;20046;-82
2023/01/24 05:31:45;;;;;;;19.17;8.63;;;;;;;-2.24;61.97;102000.47;6201511;23;20032;-82
2023/01/24 05:34:13;;;;;;;18.75;9.25;;;;;;;-1.54;62.36;102113.03;6204949;23;20036;-82
2023/01/24 05:36:41;;;;;;;21.20;9.55;;;;;;;-2.21;62.42;101987.06;6206786;23;20040;-81
2023/01/24 05:39:08;;;;;;;21.50;8.35;;;;;;;-2.55;62.02;101943.63;6232622;23;20031;-82
2023/01/24 05:41:35;;;;;;;20.67;8.27;;;;;;;-1.63;62.10;102102.13;6179431;23;20068;-80
2023/01/24 05:44:08;;;;;;;19.52;8.15;;;;;;;-2.60;62.12;101945.81;6206622;23;20047;-81
2023/01/24 05:46:37;;;;;;;19.70;8.88;;;;;;;-1.72;62.27;102105.72;6159739;23;20064;-82
2023/01/24 05:49:16;;;;;;;17.90;8.55;;;;;;;-1.98;62.45;102057.75;6136882;23;20400;-83
2023/01/24 05:52:10;;;;;;;18.52;8.75;;;;;;;-1.76;62.56;102111.34;6207921;23;20020;-82
2023/01/24 05:54:53;;;;;;;19.10;8.23;;;;;;;-1.75;63.22;102109.72;6200565;23;20025;-81
2023/01/24 05:57:38;;;;;;;21.15;8.65;;;;;;;-1.64;63.10;102103.75;6204583;23;20020;-82
2023/01/24 06:00:28;;;;;;;21.48;8.43;;;;;;;-1.79;63.25;102061.72;6178919;23;20108;-82
2023/01/24 06:03:26;;;;;;;17.45;8.10;;;;;;;-1.68;62.86;102061.78;6152269;23;20077;-82
2023/01/24 06:06:22;;;;;;;19.23;8.48;;;;;;;-1.32;63.07;102094.28;6201429;23;20027;-84
2023/01/24 06:08:51;;;;;;;17.85;7.85;;;;;;;-1.82;62.58;101999.44;6183394;23;20016;-81
2023/01/24 06:11:25;;;;;;;19.92;8.70;;;;;;;-0.95;62.72;102094.47;6204213;23;20013;-84
2023/01/24 06:14:44;;;;;;;18.23;7.82;;;;;;;0.15;63.20;102087.00;6176732;23;20016;-83
2023/01/24 06:17:10;;;;;;;16.52;7.32;;;;;;;0.70;62.85;101963.47;6153685;23;20104;-84
2023/01/24 06:20:28;;;;;;;18.45;8.05;;;;;;;2.23;62.95;101993.53;6203784;23;20122;-82
2023/01/24 06:23:35;;;;;;;;;;;;;;;;;;;;;
2023/01/24 06:26:18;;;;;;;14.68;6.80;;;;;;;4.68;59.68;102066.28;6198709;23;20048;-81
2023/01/24 06:28:50;;;;;;;15.80;7.60;;;;;;;5.36;57.68;102086.88;6202607;23;20071;-81
2023/01/24 06:31:40;;;;;;;16.58;7.72;;;;;;;5.82;56.70;102070.09;6179568;23;20009;-82
2023/01/24 06:34:35;;;;;;;14.25;6.93;;;;;;;6.14;56.33;102055.25;6204791;23;20017;-80
2023/01/24 06:37:39;;;;;;;13.43;7.47;;;;;;;6.71;55.13;102068.91;6182093;23;20021;-87
2023/01/24 06:40:30;;;;;;;;;;;;;;;;;;;;;
2023/01/24 06:42:57;;;;;;;12.55;6.88;;;;;;;7.07;53.13;102004.84;6201964;23;20048;-85
2023/01/24 06:45:44;;;;;;;12.00;6.25;;;;;;;8.04;52.59;102058.72;6199887;23;20063;-90
2023/01/24 06:48:36;;;;;;;14.10;6.47;;;;;;;7.90;50.55;101957.06;6175679;23;20092;-86
2023/01/24 06:51:16;;;;;;;9.82;6.25;;;;;;;7.98;49.30;101872.66;6088827;23;20579;-85
2023/01/24 06:53:53;;;;;;;12.38;6.10;;;;;;;8.88;48.53;101955.25;6088328;23;20022;-84
2023/01/24 06:57:10;;;;;;;;;;;;;;;;;;;;;
2023/01/24 06:59:37;;;;;;;13.57;6.35;;;;;;;9.06;47.17;101863.19;6183636;23;20021;-85
2023/01/24 07:02:30;;;;;;;11.10;6.53;;;;;;;9.12;46.00;101879.81;6206967;23;20016;-87
2023/01/24 07:05:02;;;;;;;11.55;6.40;;;;;;;8.70;45.36;101942.53;6230763;23;20020;-86
2023/01/24 07:07:45;;;;;;;13.57;6.35;;;;;;;8.30;44.87;102045.78;6205299;23;20036;-84
2023/01/24 07:11:08;;;;;;;13.85;6.28;;;;;;;6.31;44.90;101939.59;6091821;23;20015;-85
2023/01/24 07:13:42;;;;;;;11.68;6.93;;;;;;;5.02;45.34;101878.72;6198967;23;20025;-84
2023/01/24 07:16:28;;;;;;;13.35;6.47;;;;;;;4.10;45.59;101894.03;6232182;23;20017;-85
2023/01/24 07:19:25;;;;;;;13.02;6.07;;;;;;;3.16;46.14;101887.41;6182574;23;19997;-87
2023/01/24 07:21:57;;;;;;;11.43;6.55;;;;;;;3.47;46.93;102004.91;6206586;23;20023;-83
2023/01/24 07:24:54;;;;;;;12.10;6.72;;;;;;;2.31;48.38;101865.56;6201000;23;20024;-84
2023/01/24 07:28:01;;;;;;;13.55;7.07;;;;;;;3.27;48.21;102070.72;6227413;23;20541;-85
2023/01/24 07:33:39;;;;;;;12.82;6.75;;;;;;;2.00;49.55;101843.19;6215608;23;20016;-84
2023/01/24 07:36:17;;;;;;;14.80;6.72;;;;;;;2.71;49.03;101944.06;6203318;23;20426;-84
2023/01/24 07:38:52;;;;;;;15.02;6.80;;;;;;;2.55;48.97;101878.91;6227837;23;20074;-85
2023/01/24 07:41:18;;;;;;;11.82;6.57;;;;;;;3.60;49.46;101991.00;6178328;23;20405;-85
2023/01/24 07:43:47;;;;;;;11.10;5.95;;;;;;;4.03;48.65;102075.78;6229490;23;20044;-84
2023/01/24 07:46:22;;;;;;;14.23;6.85;;;;;;;3.10;49.21;101972.84;6203647;23;20016;-87
2023/01/24 07:48:56;;;;;;;13.38;6.20;;;;;;;2.73;49.14;101944.16;6203803;23;20100;-82
2023/01/24 07:51:25;;;;;;;12.80;6.50;;;;;;;2.91;49.44;102055.81;6205044;23;20020;-89
2023/01/24 07:54:20;;;;;;;12.57;6.43;;;;;;;2.07;49.68;101953.22;6201276;23;20118;-85
2023/01/24 07:57:18;;;;;;;13.98;6.43;;;;;;;2.61;50.32;102078.03;6178072;23;20048;-89
2023/01/24 08:04:49;;;;;;;14.30;6.35;;;;;;;0.91;50.89;101902.41;6102373;23;20108;-87
2023/01/24 08:07:22;;;;;;;19.83;7.30;;;;;;;1.26;51.61;101969.59;6183102;23;20023;-88
2023/01/24 08:10:35;;;;;;;10.85;6.22;;;;;;;1.79;51.32;102071.31;6216687;23;20023;-88
2023/01/24 08:13:55;;;;;;;10.52;5.80;;;;;;;1.59;52.53;101998.19;6091194;23;20022;-87
2023/01/24 08:20:50;;;;;;;10.98;5.45;;;;;;;1.98;52.40;102080.19;6144432;23;20035;-86
2023/01/24 08:24:18;;;;;;;10.75;5.22;;;;;;;1.80;52.15;102081.69;6050022;23;20051;-87
2023/01/24 08:28:01;;;;;;;11.52;5.82;;;;;;;1.47;53.16;102067.59;6071805;23;20041;-86
2023/01/24 08:31:11;;;;;;;11.10;5.93;;;;;;;0.56;53.26;101883.97;6036138;23;21166;-87
2023/01/24 08:33:52;;;;;;;12.30;6.20;;;;;;;0.99;53.71;101967.03;6047489;23;20029;-88
2023/01/24 08:40:32;;;;;;;15.32;6.57;;;;;;;0.13;54.03;101837.63;6059500;23;20023;-84
2023/01/24 08:43:13;;;;;;;12.63;5.93;;;;;;;0.45;53.84;101914.00;6081979;23;20019;-85
2023/01/24 08:46:42;;;;;;;11.57;6.60;;;;;;;0.59;54.31;101927.75;6145227;23;20020;-84
2023/01/24 08:53:52;;;;;;;11.73;6.00;;;;;;;0.11;54.42;101872.50;5949009;23;20091;-87
2023/01/24 08:56:24;;;;;;;10.23;5.55;;;;;;;0.70;54.11;101978.84;6057127;23;20062;-82
2023/01/24 08:59:43;;;;;;;13.48;6.18;;;;;;;1.23;54.60;102051.47;6013012;23;20051;-81
2023/01/24 09:03:05;;;;;;;14.73;5.53;;;;;;;1.15;55.82;102041.63;6071146;23;20049;-84
2023/01/24 09:09:37;;;;;;;13.23;5.75;;;;;;;0.10;55.22;101855.34;6029540;23;20019;-85
2023/01/24 09:13:00;;;;;;;11.75;5.60;;;;;;;1.46;55.59;102033.31;6051926;23;20019;-88
2023/01/24 09:31:44;;;;;;;10.80;5.47;;;;;;;0.70;55.71;101807.13;5951608;24;20041;-82
2023/01/24 09:34:23;;;;;;;12.30;6.40;;;;;;;1.32;55.09;101880.19;5963362;24;20020;-84
2023/01/24 09:37:26;;;;;;;15.63;6.10;;;;;;;0.84;55.76;101808.00;6060855;23;20333;-85
2023/01/24 09:41:28;;;;;;;10.35;5.85;;;;;;;2.27;55.16;102012.63;6053716;23;20154;-87
2023/01/24 09:47:35;;;;;;;11.60;6.30;;;;;;;1.16;55.19;101786.91;6136930;23;20028;-84
2023/01/24 09:55:03;;;;;;;9.95;5.20;;;;;;;2.34;54.96;102001.91;6085887;23;20111;-85
2023/01/24 09:57:57;;;;;;;13.65;6.10;;;;;;;2.35;55.30;102002.78;6086375;23;20003;-84
2023/01/24 10:00:35;;;;;;;11.68;5.30;;;;;;;2.01;55.14;101932.28;6087640;23;19999;-86
2023/01/24 10:03:45;;;;;;;11.27;5.75;;;;;;;1.63;55.48;101894.94;6063079;23;20018;-86
2023/01/24 10:06:50;;;;;;;11.90;5.88;;;;;;;1.11;54.90;101793.44;6068272;23;20046;-84
2023/01/24 10:10:23;;;;;;;15.25;6.70;;;;;;;2.04;55.53;101990.66;6094000;23;20046;-85
2023/01/24 10:12:58;;;;;;;11.82;5.90;;;;;;;1.99;55.63;101990.38;6207582;23;20024;-84
2023/01/24 10:16:29;;;;;;;13.38;6.90;;;;;;;1.95;55.85;101988.41;6156067;23;20044;-85
2023/01/24 10:19:31;;;;;;;11.90;5.93;;;;;;;1.80;55.27;101999.53;6190263;23;20043;-86
2023/01/24 10:22:47;;;;;;;10.77;5.78;;;;;;;1.75;55.85;101982.94;6208340;23;20024;-85
2023/01/24 10:25:57;;;;;;;11.73;6.40;;;;;;;1.67;55.97;101976.44;6151455;23;20019;-85
2023/01/24 10:33:08;;;;;;;9.43;5.45;;;;;;;0.44;56.15;101742.28;6146589;23;20026;-86
2023/01/24 10:36:24;;;;;;;11.00;5.80;;;;;;;1.48;56.26;101910.25;6113908;23;20479;-84
2023/01/24 10:38:50;;;;;;;11.88;6.30;;;;;;;1.20;56.56;101862.34;6021440;23;20027;-83
2023/01/24 10:41:27;;;;;;;12.85;6.05;;;;;;;1.08;56.45;101811.19;6052398;23;20019;-84
2023/01/24 10:47:44;;;;;;;10.77;5.97;;;;;;;1.97;56.33;101938.03;6099335;23;20037;-84
2023/01/24 10:50:41;;;;;;;14.65;6.57;;;;;;;1.23;56.78;101841.13;6199248;23;20021;-85
2023/01/24 10:53:23;;;;;;;12.63;6.47;;;;;;;1.22;56.63;101813.72;6154474;23;20048;-84
2023/01/24 10:56:04;;;;;;;10.35;6.28;;;;;;;1.99;56.20;101925.31;6185779;23;20013;-84
2023/01/24 10:59:26;;;;;;;11.30;5.53;;;;;;;1.94;56.28;101920.78;6198267;23;20064;-85
2023/01/24 11:02:40;;;;;;;10.00;5.53;;;;;;;1.64;56.54;101871.91;6203295;23;20041;-84
2023/01/24 11:05:41;;;;;;;12.57;5.65;;;;;;;1.60;56.37;101884.47;6207560;23;20119;-84
2023/01/24 11:08:22;;;;;;;10.02;5.38;;;;;;;1.86;56.66;101909.16;6179136;23;20013;-79
2023/01/24 11:11:18;;;;;;;11.65;6.13;;;;;;;1.69;56.51;101879.88;6204924;23;20041;-82
2023/01/24 11:14:07;;;;;;;13.85;6.75;;;;;;;0.93;56.89;101789.72;6160711;23;20009;-85
2023/01/24 11:17:02;;;;;;;;;;;;;;;;;;;;;
2023/01/24 11:19:38;;;;;;;11.57;6.22;;;;;;;0.05;56.07;101664.72;6202411;23;20095;-81
2023/01/24 11:22:35;;;;;;;10.63;6.00;;;;;;;1.07;56.85;101845.31;6197139;23;20076;-81
2023/01/24 11:29:11;;;;;;;13.35;5.75;;;;;;;1.04;57.34;101816.91;6152033;23;20023;-82
2023/01/24 11:32:04;;;;;;;12.55;6.15;;;;;;;0.79;57.53;101771.78;6169008;23;20469;-83
2023/01/24 11:35:04;;;;;;;17.02;7.88;;;;;;;1.49;57.02;101892.38;6194201;23;20049;-77
2023/01/24 11:37:43;;;;;;;10.55;5.47;;;;;;;1.15;57.24;101822.72;6165447;23;20081;-77
2023/01/24 11:43:46;;;;;;;13.88;5.15;;;;;;;1.64;57.40;101879.59;6194185;23;20024;-77
2023/01/24 11:46:33;;;;;;;13.18;5.82;;;;;;;1.74;57.48;101875.03;6193810;23;20013;-78
2023/01/24 11:49:40;;;;;;;14.02;5.80;;;;;;;1.93;57.50;101879.56;6194913;23;20405;-82
2023/01/24 11:53:26;;;;;;;13.15;5.53;;;;;;;1.98;57.16;101875.59;6174797;23;20087;-80
2023/01/24 11:56:40;;;;;;;9.13;5.03;;;;;;;1.85;57.26;101853.44;6145865;23;20017;-83
2023/01/24 11:59:56;;;;;;;10.60;5.50;;;;;;;1.93;57.60;101864.16;6137355;23;20092;-82
2023/01/24 12:02:43;;;;;;;;;;;;;;;1.91;57.04;101878.59;6048873;23;20019;-82
2023/01/24 12:05:46;;;;;;;12.55;5.38;;;;;;;1.92;57.31;101865.88;6029586;23;19913;-81
2023/01/24 12:08:20;;;;;;;10.02;5.07;;;;;;;1.94;56.76;101865.94;6197466;23;20013;-81
2023/01/24 12:11:23;;;;;;;9.90;5.07;;;;;;;1.92;57.45;101863.31;6205660;23;20021;-81
2023/01/24 12:14:09;;;;;;;9.23;4.43;;;;;;;1.92;56.96;101862.41;6198015;23;20024;-79
2023/01/24 12:16:42;;;;;;;8.02;4.97;;;;;;;1.83;57.19;101862.75;6195175;23;20013;-82
2023/01/24 12:19:49;;;;;;;10.63;5.15;;;;;;;1.52;57.42;101804.44;6193260;23;20024;-82
2023/01/24 12:22:29;;;;;;;11.27;4.88;;;;;;;1.70;57.29;101830.31;6178802;23;20070;-81
2023/01/24 12:25:11;;;;;;;11.23;5.20;;;;;;;1.85;57.64;101844.88;6196477;23;20021;-83
2023/01/24 12:28:04;;;;;;;12.32;5.65;;;;;;;1.79;57.72;101841.13;6195991;23;20095;-81
2023/01/24 12:35:28;;;;;;;8.48;4.47;;;;;;;1.96;56.85;101838.69;6112199;23;20104;-83
2023/01/24 12:38:59;;;;;;;8.50;5.13;;;;;;;1.05;57.27;101703.28;6136767;23;20052;-81
2023/01/24 12:42:20;;;;;;;9.02;4.65;;;;;;;1.77;57.91;101839.25;6004808;23;20095;-80
2023/01/24 12:45:14;;;;;;;8.60;4.97;;;;;;;0.78;56.95;101656.38;6033447;23;20185;-80
2023/01/24 12:48:00;;;;;;;9.50;5.30;;;;;;;0.77;57.86;101665.75;6113526;23;20190;-82
2023/01/24 12:51:02;;;;;;;13.13;6.35;;;;;;;1.83;57.79;101821.66;6070140;23;20006;-83
2023/01/24 12:53:47;;;;;;;9.18;5.28;;;;;;;0.71;57.63;101624.38;6183763;23;20024;-80
2023/01/24 12:57:13;;;;;;;11.68;4.97;;;;;;;1.69;57.49;101778.91;6196727;23;20075;-81
2023/01/24 12:59:45;;;;;;;10.07;5.35;;;;;;;1.49;57.68;101751.25;6141907;23;20125;-83
2023/01/24 13:03:18;;;;;;;11.77;4.95;;;;;;;1.78;57.57;101812.78;6148322;23;20028;-83
2023/01/24 13:06:13;;;;;;;;;;;;;;;1.62;57.86;101806.75;6204447;23;20516;-81
2023/01/24 13:09:11;;;;;;;8.40;4.93;;;;;;;1.52;57.43;101798.41;6201962;23;19911;-83
2023/01/24 13:11:52;;;;;;;12.52;5.63;;;;;;;0.84;57.51;101710.59;6200763;23;20021;-81
2023/01/24 13:22:08;;;;;;;10.80;5.38;;;;;;;1.42;57.78;101799.53;6149496;23;20017;-81
2023/01/24 13:25:49;;;;;;;9.63;5.25;;;;;;;0.52;57.56;101669.38;6151681;23;20021;-80
2023/01/24 13:28:42;;;;;;;9.20;4.57;;;;;;;1.29;57.68;101798.81;6142061;23;20058;-79
2023/01/24 13:31:13;;;;;;;11.05;4.60;;;;;;;1.31;58.18;101797.22;6115874;23;20021;-82
2023/01/24 13:34:17;;;;;;;9.52;5.00;;;;;;;1.29;58.27;101816.78;6140753;23;20363;-81
2023/01/24 13:40:14;;;;;;;11.20;5.25;;;;;;;1.12;58.18;101794.31;6128042;23;20049;-80
2023/01/24 13:44:02;;;;;;;13.80;5.93;;;;;;;0.23;58.71;101647.94;6064855;23;20021;-83
2023/01/24 13:47:01;;;;;;;11.57;6.10;;;;;;;1.06;58.37;101792.25;6081225;23;20019;-81
2023/01/24 13:50:10;;;;;;;12.23;6.00;;;;;;;1.02;58.48;101793.75;6116836;23;20040;-80
2023/01/24 13:56:31;;;;;;;11.60;5.70;;;;;;;0.16;58.68;101661.13;6118089;23;19912;-80
2023/01/24 13:59:26;;;;;;;9.65;5.47;;;;;;;-0.21;59.10;101588.00;6114731;23;20167;-81
2023/01/24 14:06:23;;;;;;;10.65;6.07;;;;;;;-0.25;59.08;101595.41;6092128;23;20013;-81
2023/01/24 14:10:04;;;;;;;11.73;6.23;;;;;;;0.87;59.61;101775.75;6130391;23;20021;-79
2023/01/24 14:13:17;;;;;;;11.50;5.75;;;;;;;0.78;59.62;101741.81;6099242;23;20276;-81
2023/01/24 14:16:31;;;;;;;13.80;5.57;;;;;;;1.04;59.19;101769.09;6105032;23;20002;-84
2023/01/24 14:19:18;;;;;;;14.57;6.60;;;;;;;1.04;59.82;101765.63;6114246;23;20045;-80
2023/01/24 14:22:23;;;;;;;;;;;;;;;;;;;;;
2023/01/24 14:25:11;;;;;;;15.45;6.78;;;;;;;-0.44;59.20;101531.97;6081614;23;20029;-82
2023/01/24 14:28:02;;;;;;;11.68;5.97;;;;;;;0.94;59.18;101751.34;6102255;23;20048;-81
2023/01/24 14:30:56;;;;;;;11.98;6.40;;;;;;;-0.35;59.44;101523.19;6103592;23;20018;-83
2023/01/24 14:33:29;;;;;;;12.85;6.43;;;;;;;0.21;59.11;101620.47;6104954;23;20025;-82
2023/01/24 14:36:27;;;;;;;15.88;6.28;;;;;;;0.88;59.51;101738.19;6079651;23;20049;-82
2023/01/24 14:39:47;;;;;;;14.43;6.90;;;;;;;0.94;59.40;101743.66;6089545;23;20022;-83
2023/01/24 14:42:19;;;;;;;15.85;7.10;;;;;;;0.48;59.88;101671.63;6083538;23;20441;-83
2023/01/24 14:45:33;;;;;;;11.88;6.20;;;;;;;0.11;60.17;101617.34;6105434;23;20018;-85
2023/01/24 14:48:01;;;;;;;12.57;6.20;;;;;;;0.86;60.35;101753.44;6106580;23;20044;-81
2023/01/24 14:50:41;;;;;;;12.35;5.78;;;;;;;0.41;59.70;101673.81;6083423;23;20029;-82
2023/01/24 14:53:31;;;;;;;11.70;5.78;;;;;;;0.36;59.93;101675.22;6057606;23;20022;-81
2023/01/24 14:56:13;;;;;;;13.40;6.40;;;;;;;0.63;59.64;101713.59;6095754;23;20025;-83
2023/01/24 14:58:48;;;;;;;10.30;5.80;;;;;;;-0.36;59.85;101554.69;6086673;23;20166;-81
2023/01/24 15:02:03;;;;;;;13.18;5.75;;;;;;;-0.10;60.14;101600.63;6110340;23;20014;-81
2023/01/24 15:04:37;;;;;;;12.85;6.07;;;;;;;-0.12;60.44;101621.00;6093141;23;20080;-86